AXH weather

Houston Southwest Airport
Houston, Texas, United States

Public forecast

Using degrees Fahrenheit for public forecast. Weather courtesy of forecast.io.

METAR (pilot weather report)

Retrieved 2019/05/27 00:35 UTC (0 seconds ago):

KAXH 270035Z AUTO 13006KT 10SM CLR 27/22 A3001 RMK AO2 T02690217

TAF (pilot weather forecast)

Forecast is more than 12 hours old.

Closest forecast is Sugar Land Regional Airport, 11.7 nm (21.6 km) NW. Retrieved 2019/05/26 00:30 UTC (1 day ago):

TAF KSGR 262328Z 2700/2724 15011KT P6SM SCT040 FM270300 14007KT P6SM SCT020 SCT250 FM271600 17010KT P6SM BKN035 FM272100 16012KT P6SM SCT040